createdAt,value
2022-11-01T00:02:19.102Z,11.75
2022-11-01T00:04:47.008Z,11.82
2022-11-01T00:07:14.944Z,11.83
2022-11-01T00:09:42.550Z,11.82
2022-11-01T00:12:10.434Z,11.81
2022-11-01T00:14:38.059Z,11.78
2022-11-01T00:17:06.646Z,11.78
2022-11-01T00:19:34.311Z,11.78
2022-11-01T00:22:02.491Z,11.75
2022-11-01T00:24:33.669Z,11.75
2022-11-01T00:27:01.641Z,11.80
2022-11-01T00:29:29.265Z,11.77
2022-11-01T00:31:57.125Z,11.71
2022-11-01T00:34:24.879Z,11.72
2022-11-01T00:36:52.754Z,11.81
2022-11-01T00:39:20.517Z,11.75
2022-11-01T00:41:48.387Z,11.78
2022-11-01T00:44:16.179Z,11.94
2022-11-01T00:46:44.047Z,11.86
2022-11-01T00:49:11.937Z,11.84
2022-11-01T00:51:39.932Z,11.88
2022-11-01T00:54:07.673Z,11.97
2022-11-01T00:56:35.494Z,11.93
2022-11-01T00:59:03.757Z,11.87
2022-11-01T01:01:32.552Z,11.90
2022-11-01T01:04:00.693Z,11.87
2022-11-01T01:06:28.704Z,11.94
2022-11-01T01:09:00.567Z,12.03
2022-11-01T01:11:28.792Z,11.88
2022-11-01T01:13:56.720Z,11.87
2022-11-01T01:16:24.654Z,11.98
2022-11-01T01:18:52.609Z,12.01
2022-11-01T01:21:20.564Z,11.96
2022-11-01T01:23:51.471Z,11.94
2022-11-01T01:26:19.293Z,11.97
2022-11-01T01:28:47.304Z,11.85
2022-11-01T01:31:15.326Z,11.98
2022-11-01T01:33:43.083Z,11.98
2022-11-01T01:36:11.190Z,11.95
2022-11-01T01:38:38.964Z,11.96
2022-11-01T01:41:25.770Z,11.94
2022-11-01T01:43:53.737Z,11.96
2022-11-01T01:46:21.755Z,11.91
2022-11-01T01:48:57.160Z,11.86
2022-11-01T01:51:27.840Z,11.90
2022-11-01T01:53:58.256Z,11.91
2022-11-01T01:56:36.698Z,11.89
2022-11-01T01:59:10.908Z,12.00
2022-11-01T02:01:41.526Z,12.01
2022-11-01T02:04:32.797Z,12.06
2022-11-01T02:07:01.082Z,11.90
2022-11-01T02:09:31.700Z,11.96
2022-11-01T02:11:59.830Z,11.98
2022-11-01T02:14:28.034Z,11.94
2022-11-01T02:17:10.208Z,11.93
2022-11-01T02:19:54.720Z,12.04
2022-11-01T02:22:57.942Z,11.97
2022-11-01T02:25:53.070Z,11.86
2022-11-01T02:29:01.791Z,11.97
2022-11-01T02:31:41.761Z,11.89
2022-11-01T02:34:28.720Z,11.86
2022-11-01T02:37:10.394Z,11.78
2022-11-01T02:39:44.446Z,11.97
2022-11-01T02:42:35.242Z,11.87
2022-11-01T02:45:11.046Z,11.96
2022-11-01T02:47:40.480Z,11.85
2022-11-01T02:50:11.759Z,11.84
2022-11-01T02:52:41.883Z,11.90
2022-11-01T02:55:30.008Z,11.91
2022-11-01T02:58:06.630Z,11.88
2022-11-01T03:00:38.327Z,11.87
2022-11-01T03:03:15.062Z,11.85
2022-11-01T03:05:48.234Z,11.84
2022-11-01T03:08:35.546Z,11.94
2022-11-01T03:11:26.523Z,12.00
2022-11-01T03:14:15.832Z,12.01
2022-11-01T03:17:11.034Z,12.01
2022-11-01T03:20:03.400Z,11.86
2022-11-01T03:22:43.926Z,11.86
2022-11-01T03:25:39.889Z,11.83
2022-11-01T03:28:22.412Z,11.98
2022-11-01T03:30:58.994Z,11.89
2022-11-01T03:33:29.207Z,11.87
2022-11-01T03:36:03.730Z,12.04
2022-11-01T03:38:42.155Z,11.92
2022-11-01T03:41:14.702Z,11.92
2022-11-01T03:43:42.681Z,11.91
2022-11-01T03:46:10.808Z,11.86
2022-11-01T03:48:42.107Z,11.84
2022-11-01T03:51:09.883Z,11.81
2022-11-01T03:53:37.800Z,11.86
2022-11-01T03:56:05.780Z,11.87
2022-11-01T03:58:44.222Z,11.84
2022-11-01T04:01:15.022Z,11.83
2022-11-01T04:03:43.808Z,11.90
2022-11-01T04:06:11.778Z,11.84
2022-11-01T04:08:39.829Z,11.85
2022-11-01T04:11:07.577Z,11.81
2022-11-01T04:13:36.142Z,11.78
2022-11-01T04:16:22.352Z,11.82
2022-11-01T04:19:08.772Z,11.73
2022-11-01T04:21:36.580Z,11.81
2022-11-01T04:24:04.553Z,11.83
2022-11-01T04:26:32.195Z,11.82
2022-11-01T04:29:00.283Z,11.87
2022-11-01T04:31:35.342Z,11.84
2022-11-01T04:34:05.101Z,11.83
2022-11-01T04:36:32.880Z,11.79
2022-11-01T04:39:00.853Z,11.68
2022-11-01T04:41:29.532Z,11.66
2022-11-01T04:43:59.267Z,11.72
2022-11-01T04:46:31.858Z,11.72
2022-11-01T04:48:59.724Z,11.72
2022-11-01T04:51:27.550Z,11.75
2022-11-01T04:53:55.464Z,11.66
2022-11-01T04:56:23.250Z,11.61
2022-11-01T04:58:51.194Z,11.64
2022-11-01T05:01:19.108Z,11.68
2022-11-01T05:03:48.846Z,11.69
2022-11-01T05:06:16.588Z,11.66
2022-11-01T05:08:44.464Z,11.71
2022-11-01T05:11:12.231Z,11.71
2022-11-01T05:13:40.210Z,11.73
2022-11-01T05:16:19.678Z,11.59
2022-11-01T05:18:48.534Z,11.65
2022-11-01T05:21:16.439Z,11.59
2022-11-01T05:23:44.349Z,11.55
2022-11-01T05:26:12.030Z,11.58
2022-11-01T05:28:39.988Z,11.59
2022-11-01T05:31:07.694Z,11.66
2022-11-01T05:33:35.726Z,11.66
2022-11-01T05:36:03.551Z,11.62
2022-11-01T05:38:31.422Z,11.56
2022-11-01T05:41:01.286Z,11.58
2022-11-01T05:43:29.241Z,11.56
2022-11-01T05:45:57.237Z,11.60
2022-11-01T05:48:25.145Z,11.62
2022-11-01T05:50:52.827Z,11.81
2022-11-01T05:53:20.710Z,11.78
2022-11-01T05:55:48.407Z,11.63
2022-11-01T05:58:16.418Z,11.58
2022-11-01T06:00:44.181Z,11.58
2022-11-01T06:03:12.003Z,11.69
2022-11-01T06:05:39.887Z,11.69
2022-11-01T06:08:07.972Z,11.64
2022-11-01T06:10:35.674Z,11.65
2022-11-01T06:13:03.983Z,11.61
2022-11-01T06:15:34.355Z,11.63
2022-11-01T06:18:05.567Z,11.71
2022-11-01T06:20:34.862Z,11.74
2022-11-01T06:23:08.341Z,11.72
2022-11-01T06:25:36.710Z,11.86
2022-11-01T06:28:04.862Z,11.97
2022-11-01T06:30:32.716Z,11.93
2022-11-01T06:33:01.887Z,11.88
2022-11-01T06:35:30.119Z,11.85
2022-11-01T06:38:03.303Z,11.87
2022-11-01T06:40:30.991Z,11.89
2022-11-01T06:43:03.274Z,11.97
2022-11-01T06:45:32.389Z,11.98
2022-11-01T06:48:00.544Z,11.91
2022-11-01T06:50:28.531Z,12.15
2022-11-01T06:53:00.566Z,11.96
2022-11-01T06:55:29.939Z,11.89
2022-11-01T06:58:00.734Z,11.94
2022-11-01T07:00:30.270Z,12.10
2022-11-01T07:02:59.640Z,12.11
2022-11-01T07:05:30.435Z,12.09
2022-11-01T07:08:03.075Z,11.99
2022-11-01T07:10:31.100Z,12.19
2022-11-01T07:13:04.037Z,12.18
2022-11-01T07:15:32.508Z,12.30
2022-11-01T07:18:02.652Z,12.52
2022-11-01T07:20:31.980Z,12.43
2022-11-01T07:23:05.362Z,12.40
2022-11-01T07:25:33.630Z,12.47
2022-11-01T07:28:01.821Z,12.57
2022-11-01T07:30:29.631Z,12.52
2022-11-01T07:33:05.207Z,12.62
2022-11-01T07:35:33.889Z,12.69
2022-11-01T07:38:05.057Z,12.78
2022-11-01T07:40:37.023Z,12.80
2022-11-01T07:43:06.212Z,12.83
2022-11-01T07:45:35.801Z,12.84
2022-11-01T07:48:06.395Z,12.89
2022-11-01T07:50:34.960Z,12.78
2022-11-01T07:53:05.126Z,12.80
2022-11-01T07:55:33.452Z,12.84
2022-11-01T07:58:02.625Z,12.97
2022-11-01T08:00:30.555Z,13.04
2022-11-01T08:03:19.293Z,13.29
2022-11-01T08:05:48.059Z,13.39
2022-11-01T08:08:16.796Z,13.39
2022-11-01T08:10:45.326Z,13.40
2022-11-01T08:13:22.213Z,13.45
2022-11-01T08:15:52.206Z,13.67
2022-11-01T08:18:22.666Z,13.72
2022-11-01T08:20:50.878Z,13.75
2022-11-01T08:23:19.329Z,13.72
2022-11-01T08:25:47.140Z,13.63
2022-11-01T08:28:19.204Z,13.71
2022-11-01T08:30:49.187Z,13.56
2022-11-01T08:33:17.407Z,13.61
2022-11-01T08:35:50.140Z,13.72
2022-11-01T08:38:18.862Z,13.77
2022-11-01T08:40:46.574Z,14.05
2022-11-01T08:43:14.460Z,13.91
2022-11-01T08:45:42.271Z,13.89
2022-11-01T08:48:10.667Z,13.92
2022-11-01T08:50:39.021Z,13.80
2022-11-01T08:53:12.251Z,13.81
2022-11-01T08:55:40.712Z,13.93
2022-11-01T08:58:09.554Z,13.78
2022-11-01T09:00:37.596Z,13.85
2022-11-01T09:03:06.079Z,13.95
2022-11-01T09:05:34.509Z,13.96
2022-11-01T09:08:02.959Z,13.93
2022-11-01T09:10:31.304Z,14.00
2022-11-01T09:13:01.031Z,14.02
2022-11-01T09:15:29.482Z,14.16
2022-11-01T09:17:57.416Z,14.10
2022-11-01T09:20:26.543Z,14.06
2022-11-01T09:22:54.478Z,13.99
2022-11-01T09:25:22.142Z,13.97
2022-11-01T09:27:49.968Z,13.86
2022-11-01T09:30:17.645Z,13.91
2022-11-01T09:32:46.141Z,14.05
2022-11-01T09:35:13.842Z,13.99
2022-11-01T09:37:41.798Z,14.03
2022-11-01T09:40:11.473Z,14.18
2022-11-01T09:42:43.817Z,14.35
2022-11-01T09:45:19.492Z,14.46
2022-11-01T09:48:07.438Z,14.53
2022-11-01T09:50:40.049Z,14.39
2022-11-01T09:53:20.519Z,14.45
2022-11-01T09:56:12.514Z,14.72
2022-11-01T09:59:01.660Z,14.77
2022-11-01T10:01:53.702Z,14.77
2022-11-01T10:04:56.622Z,14.86
2022-11-01T10:07:24.297Z,14.89
2022-11-01T10:09:52.103Z,15.07
2022-11-01T10:12:25.888Z,15.22
2022-11-01T10:15:11.939Z,15.30
2022-11-01T10:17:52.666Z,15.42
2022-11-01T10:20:28.966Z,15.40
2022-11-01T10:22:57.904Z,15.51
2022-11-01T10:25:32.247Z,15.43
2022-11-01T10:28:11.728Z,15.45
2022-11-01T10:30:46.845Z,15.48
2022-11-01T10:33:32.204Z,15.29
2022-11-01T10:36:10.207Z,15.17
2022-11-01T10:41:50.202Z,14.80
2022-11-01T10:44:41.457Z,14.84
2022-11-01T10:47:19.095Z,14.77
2022-11-01T10:50:05.334Z,14.52
2022-11-01T10:53:00.055Z,14.58
2022-11-01T10:55:33.954Z,14.33
2022-11-01T10:58:07.237Z,14.28
2022-11-01T11:00:39.996Z,14.14
2022-11-01T11:03:34.596Z,14.17
2022-11-01T11:06:06.961Z,13.87
2022-11-01T11:08:37.623Z,13.97
2022-11-01T11:11:12.332Z,13.99
2022-11-01T11:13:49.585Z,13.90
2022-11-01T11:16:33.476Z,13.79
2022-11-01T11:19:19.509Z,13.81
2022-11-01T11:21:50.131Z,13.80
2022-11-01T11:24:38.731Z,13.77
2022-11-01T11:27:20.713Z,13.88
2022-11-01T11:29:52.859Z,13.70
2022-11-01T11:32:27.600Z,13.79
2022-11-01T11:35:17.448Z,13.74
2022-11-01T11:38:14.542Z,14.05
2022-11-01T11:40:43.718Z,13.91
2022-11-01T11:43:30.378Z,13.66
2022-11-01T11:46:13.663Z,13.36
2022-11-01T11:49:01.381Z,13.53
2022-11-01T11:51:32.455Z,13.43
2022-11-01T11:54:22.006Z,13.54
2022-11-01T11:57:08.783Z,13.28
2022-11-01T11:59:36.996Z,13.30
2022-11-01T12:02:15.911Z,13.29
2022-11-01T12:04:58.446Z,13.32
2022-11-01T12:07:26.222Z,13.37
2022-11-01T12:09:55.867Z,13.31
2022-11-01T12:12:28.118Z,13.32
2022-11-01T12:14:58.005Z,13.32
2022-11-01T12:17:26.907Z,13.36
2022-11-01T12:20:12.693Z,13.42
2022-11-01T12:22:47.802Z,13.56
2022-11-01T12:25:22.405Z,13.47
2022-11-01T12:28:32.023Z,13.42
2022-11-01T12:31:08.452Z,13.40
2022-11-01T12:33:56.095Z,13.32
2022-11-01T12:36:53.982Z,13.40
2022-11-01T12:39:34.211Z,13.56
2022-11-01T12:42:05.040Z,13.58
2022-11-01T12:44:45.522Z,13.57
2022-11-01T12:47:27.797Z,13.62
2022-11-01T12:50:10.407Z,13.54
2022-11-01T12:52:52.590Z,13.73
2022-11-01T12:55:39.746Z,13.59
2022-11-01T12:58:15.957Z,13.61
2022-11-01T13:01:09.751Z,13.67
2022-11-01T13:04:15.073Z,13.61
2022-11-01T13:07:19.995Z,13.55
2022-11-01T13:10:29.102Z,13.56
2022-11-01T13:13:16.519Z,13.37
2022-11-01T13:16:02.386Z,13.30
2022-11-01T13:18:39.224Z,13.33
2022-11-01T13:21:21.364Z,13.26
2022-11-01T13:24:07.453Z,13.20
2022-11-01T13:26:56.393Z,12.90
2022-11-01T13:29:42.386Z,12.82
2022-11-01T13:32:41.366Z,12.89
2022-11-01T13:35:35.288Z,12.81
2022-11-01T13:38:18.676Z,12.80
2022-11-01T13:40:52.102Z,12.92
2022-11-01T13:43:49.109Z,12.68
2022-11-01T13:46:34.838Z,12.64
2022-11-01T13:49:14.152Z,12.57
2022-11-01T13:51:44.759Z,12.50
2022-11-01T13:54:27.310Z,12.50
2022-11-01T13:57:19.981Z,12.46
2022-11-01T13:59:59.825Z,12.44
2022-11-01T14:02:27.891Z,12.37
2022-11-01T14:04:58.398Z,12.24
2022-11-01T14:07:57.211Z,12.20
2022-11-01T14:10:30.891Z,12.18
2022-11-01T14:13:14.639Z,12.08
2022-11-01T14:15:55.873Z,12.10
2022-11-01T14:18:24.345Z,12.06
2022-11-01T14:20:54.308Z,12.05
2022-11-01T14:23:28.442Z,12.14
2022-11-01T14:26:21.277Z,12.06
2022-11-01T14:28:52.044Z,11.98
2022-11-01T14:31:24.798Z,11.81
2022-11-01T14:33:56.129Z,11.74
2022-11-01T14:36:34.597Z,11.75
2022-11-01T14:39:15.964Z,11.76
2022-11-01T14:41:45.246Z,11.64
2022-11-01T14:44:33.389Z,11.61
2022-11-01T14:47:10.322Z,11.60
2022-11-01T14:49:44.423Z,11.53
2022-11-01T14:52:27.384Z,11.51
2022-11-01T14:55:20.762Z,11.47
2022-11-01T14:57:51.924Z,11.70
2022-11-01T15:00:22.969Z,11.54
2022-11-01T15:02:51.114Z,11.50
2022-11-01T15:05:19.010Z,11.44
2022-11-01T15:07:53.666Z,11.45
2022-11-01T15:10:21.918Z,11.48
2022-11-01T15:13:02.260Z,11.48
2022-11-01T15:15:37.012Z,11.56
2022-11-01T15:18:21.401Z,11.45
2022-11-01T15:20:54.766Z,11.41
2022-11-01T15:23:36.938Z,11.40
2022-11-01T15:26:13.103Z,11.48
2022-11-01T15:28:52.705Z,11.57
2022-11-01T15:31:21.996Z,11.47
2022-11-01T15:34:25.113Z,11.37
2022-11-01T15:36:54.132Z,11.38
2022-11-01T15:39:29.466Z,11.41
2022-11-01T15:41:57.926Z,11.39
2022-11-01T15:44:30.664Z,11.37
2022-11-01T15:47:02.184Z,11.39
2022-11-01T15:49:36.098Z,11.50
2022-11-01T15:52:28.054Z,11.58
2022-11-01T15:55:36.129Z,11.55
2022-11-01T15:58:07.103Z,11.51
2022-11-01T16:00:44.345Z,11.67
2022-11-01T16:03:36.025Z,11.55
2022-11-01T16:06:13.910Z,11.56
2022-11-01T16:09:05.450Z,11.63
2022-11-01T16:11:35.134Z,11.60
2022-11-01T16:14:07.466Z,11.57
2022-11-01T16:17:00.106Z,11.69
2022-11-01T16:19:39.945Z,11.56
2022-11-01T16:22:34.089Z,11.67
2022-11-01T16:25:21.684Z,11.72
2022-11-01T16:27:55.192Z,11.58
2022-11-01T16:30:49.906Z,11.64
2022-11-01T16:33:22.240Z,11.63
2022-11-01T16:36:18.861Z,11.58
2022-11-01T16:38:47.797Z,11.59
2022-11-01T16:41:27.133Z,11.56
2022-11-01T16:44:00.614Z,11.68
2022-11-01T16:46:30.320Z,11.60
2022-11-01T16:49:15.660Z,11.56
2022-11-01T16:51:43.714Z,11.72
2022-11-01T16:54:13.359Z,11.64
2022-11-01T16:56:50.464Z,11.78
2022-11-01T16:59:32.016Z,11.82
2022-11-01T17:02:02.401Z,11.68
2022-11-01T17:04:31.033Z,11.61
2022-11-01T17:06:58.923Z,11.74
2022-11-01T17:09:32.604Z,11.89
2022-11-01T17:12:00.376Z,11.86
2022-11-01T17:14:28.476Z,11.91
2022-11-01T17:16:56.778Z,11.85
2022-11-01T17:19:33.124Z,11.74
2022-11-01T17:22:11.975Z,11.72
2022-11-01T17:24:40.454Z,11.91
2022-11-01T17:27:09.003Z,11.80
2022-11-01T17:29:37.076Z,11.91
2022-11-01T17:32:09.525Z,11.88
2022-11-01T17:34:38.919Z,11.83
2022-11-01T17:37:06.843Z,11.77
2022-11-01T17:39:34.790Z,11.83
2022-11-01T17:42:02.651Z,11.79
2022-11-01T17:44:30.519Z,11.71
2022-11-01T17:46:59.258Z,11.77
2022-11-01T17:49:27.129Z,11.79
2022-11-01T17:51:55.943Z,11.73
2022-11-01T17:56:56.905Z,11.63
2022-11-01T17:59:24.808Z,11.54
2022-11-01T18:01:52.607Z,11.56
2022-11-01T18:04:20.660Z,11.69
2022-11-01T18:06:48.399Z,11.65
2022-11-01T18:09:24.098Z,11.78
2022-11-01T18:11:54.895Z,11.69
2022-11-01T18:14:32.885Z,11.77
2022-11-01T18:17:13.216Z,11.66
2022-11-01T18:19:47.041Z,11.77
2022-11-01T18:22:43.760Z,11.64
2022-11-01T18:25:21.451Z,11.69
2022-11-01T18:27:49.614Z,11.69
2022-11-01T18:30:20.150Z,11.70
2022-11-01T18:33:10.258Z,11.72
2022-11-01T18:36:08.219Z,11.76
2022-11-01T18:39:09.367Z,11.65
2022-11-01T18:41:37.276Z,11.76
2022-11-01T18:44:11.561Z,11.77
2022-11-01T18:46:54.631Z,11.72
2022-11-01T18:49:25.926Z,11.64
2022-11-01T18:51:55.333Z,11.66
2022-11-01T18:54:24.327Z,11.75
2022-11-01T18:56:56.137Z,11.75
2022-11-01T18:59:29.510Z,11.62
2022-11-01T19:02:02.230Z,11.71
2022-11-01T19:04:31.660Z,11.73
2022-11-01T19:07:22.753Z,11.75
2022-11-01T19:09:57.758Z,11.76
2022-11-01T19:12:40.559Z,11.77
2022-11-01T19:15:13.920Z,11.69
2022-11-01T19:17:43.700Z,11.77
2022-11-01T19:20:27.937Z,11.69
2022-11-01T19:23:10.046Z,11.82
2022-11-01T19:25:38.443Z,11.73
2022-11-01T19:28:27.725Z,11.70
2022-11-01T19:30:59.554Z,11.68
2022-11-01T19:33:38.847Z,11.73
2022-11-01T19:36:19.803Z,11.80
2022-11-01T19:38:53.159Z,11.80
2022-11-01T19:41:34.103Z,11.76
2022-11-01T19:44:11.927Z,11.84
2022-11-01T19:46:39.630Z,11.79
2022-11-01T19:49:26.405Z,11.69
2022-11-01T19:52:33.173Z,11.79
2022-11-01T19:55:01.421Z,11.76
2022-11-01T19:57:39.604Z,11.73
2022-11-01T20:00:20.279Z,11.74
2022-11-01T20:02:54.842Z,11.77
2022-11-01T20:05:34.644Z,11.66
2022-11-01T20:08:19.642Z,11.71
2022-11-01T20:10:47.788Z,11.64
2022-11-01T20:13:15.504Z,11.58
2022-11-01T20:15:44.281Z,11.51
2022-11-01T20:18:11.977Z,11.47
2022-11-01T20:20:43.837Z,11.46
2022-11-01T20:23:25.851Z,11.44
2022-11-01T20:25:55.264Z,11.44
2022-11-01T20:28:22.962Z,11.55
2022-11-01T20:30:50.891Z,11.59
2022-11-01T20:33:18.671Z,11.56
2022-11-01T20:35:46.614Z,11.52
2022-11-01T20:38:14.327Z,11.51
2022-11-01T20:40:42.382Z,11.42
2022-11-01T20:43:10.070Z,11.44
2022-11-01T20:45:38.085Z,11.47
2022-11-01T20:48:07.501Z,11.46
2022-11-01T20:50:35.913Z,11.50
2022-11-01T20:53:05.465Z,11.44
2022-11-01T20:55:33.977Z,11.43
2022-11-01T20:58:02.488Z,11.45
2022-11-01T21:00:31.865Z,11.56
2022-11-01T21:03:04.397Z,11.51
2022-11-01T21:05:36.724Z,11.47
2022-11-01T21:08:25.706Z,11.49
2022-11-01T21:11:00.972Z,11.40
2022-11-01T21:13:42.219Z,11.43
2022-11-01T21:16:19.991Z,11.38
2022-11-01T21:18:47.964Z,11.45
2022-11-01T21:21:15.804Z,11.46
2022-11-01T21:23:44.759Z,11.43
2022-11-01T21:26:24.048Z,11.41
2022-11-01T21:28:55.419Z,11.37
2022-11-01T21:31:38.954Z,11.40
2022-11-01T21:34:10.169Z,11.46
2022-11-01T21:36:47.861Z,11.42
2022-11-01T21:39:18.396Z,11.47
2022-11-01T21:41:49.624Z,11.42
2022-11-01T21:44:40.543Z,11.41
2022-11-01T21:47:14.041Z,11.40
2022-11-01T21:49:41.902Z,11.32
2022-11-01T21:54:44.272Z,11.43
2022-11-01T21:57:13.213Z,11.44
2022-11-01T21:59:42.003Z,11.38
2022-11-01T22:02:14.667Z,11.41
2022-11-01T22:04:44.058Z,11.41
2022-11-01T22:07:12.188Z,11.39
2022-11-01T22:09:40.112Z,11.37
2022-11-01T22:12:08.269Z,11.34
2022-11-01T22:14:37.475Z,11.33
2022-11-01T22:17:05.230Z,11.35
2022-11-01T22:19:33.156Z,11.40
2022-11-01T22:22:00.854Z,11.40
2022-11-01T22:24:29.630Z,11.49
2022-11-01T22:26:57.291Z,11.43
2022-11-01T22:29:25.143Z,11.48
2022-11-01T22:31:52.799Z,11.49
2022-11-01T22:34:21.304Z,11.47
2022-11-01T22:36:49.052Z,11.51
2022-11-01T22:39:25.248Z,11.49
2022-11-01T22:41:54.118Z,11.58
2022-11-01T22:44:31.544Z,11.62
2022-11-01T22:47:01.573Z,11.69
2022-11-01T22:49:33.837Z,11.59
2022-11-01T22:52:12.724Z,11.73
2022-11-01T22:54:46.168Z,11.79
2022-11-01T22:57:22.821Z,11.72
2022-11-01T23:00:01.999Z,11.65
2022-11-01T23:02:33.597Z,11.69
2022-11-01T23:05:07.827Z,11.72
2022-11-01T23:07:35.631Z,11.74
2022-11-01T23:10:05.807Z,11.74
2022-11-01T23:12:54.839Z,11.65
2022-11-01T23:15:33.500Z,11.77
2022-11-01T23:18:21.481Z,11.75
2022-11-01T23:21:02.694Z,11.79
2022-11-01T23:23:30.459Z,11.72
2022-11-01T23:26:02.296Z,11.68
2022-11-01T23:28:35.001Z,11.63
2022-11-01T23:31:06.711Z,11.66
2022-11-01T23:33:41.207Z,11.70
2022-11-01T23:36:23.479Z,11.67
2022-11-01T23:41:33.877Z,11.65
2022-11-01T23:44:25.506Z,11.65
2022-11-01T23:46:57.156Z,11.57
2022-11-01T23:49:29.631Z,11.55
2022-11-01T23:51:58.323Z,11.47
2022-11-01T23:54:39.893Z,11.39
2022-11-01T23:57:16.139Z,11.33
2022-11-01T23:59:43.891Z,11.37
